This is the latest recevied weather packets stored in our database for station/object EA1AHP-1. If no packets are shown the sender has not sent any weather packets the latest 10 day(s).
| Time | Temp. | Humidity | Pressure | Rain* | Wind** | Luminosity | Snow |
|---|---|---|---|---|---|---|---|
| 1777732009 | 19.44° C | 10% | 924 hPa | 0 mm | - | - | - |
| 1777731110 | 19.44° C | 10% | 924 hPa | 0 mm | - | - | - |
| 1777730210 | 18.89° C | 10% | 924 hPa | 0 mm | - | - | - |
| 1777729310 | 18.89° C | 12% | 925 hPa | 0 mm | - | - | - |
| 1777728410 | 18.89° C | 12% | 925 hPa | 0 mm | - | - | - |
| 1777727510 | 18.33° C | 13% | 925 hPa | 0 mm | - | - | - |
| 1777726610 | 18.33° C | 13% | 925 hPa | 0 mm | - | - | - |
| 1777725710 | 18.33° C | 13% | 925 hPa | 0 mm | - | - | - |
| 1777724810 | 17.78° C | 13% | 925 hPa | 0 mm | - | - | - |
| 1777723910 | 17.78° C | 13% | 925 hPa | 0 mm | - | - | - |
| 1777723010 | 17.78° C | 13% | 926 hPa | 0 mm | - | - | - |
| 1777722110 | 17.22° C | 13% | 926 hPa | 0 mm | - | - | - |
| 1777721210 | 17.22° C | 13% | 926 hPa | 0 mm | - | - | - |
| 1777720310 | 17.22° C | 13% | 926 hPa | 0 mm | - | - | - |
| 1777719410 | 16.67° C | 13% | 926 hPa | 0 mm | - | - | - |
| 1777718510 | 16.67° C | 14% | 926 hPa | 0 mm | - | - | - |
| 1777717611 | 16.67° C | 13% | 926 hPa | 0 mm | - | - | - |
| 1777716710 | 16.67° C | 14% | 926 hPa | 0 mm | - | - | - |
| 1777715810 | 16.67° C | 16% | 926 hPa | 0 mm | - | - | - |
| 1777714910 | 16.11° C | 16% | 926 hPa | 0 mm | - | - | - |
| 1777714011 | 16.11° C | 19% | 926 hPa | 0 mm | - | - | - |
| 1777713110 | 15.56° C | 22% | 930 hPa | 0 mm | - | - | - |
| 1777712211 | 15° C | 19% | 926 hPa | 0 mm | - | - | - |
| 1777711310 | 15° C | 19% | 929 hPa | 0 mm | - | - | - |
| 1777710410 | 14.44° C | 17% | 926 hPa | 0 mm | - | - | - |
* Rain latest hour (hover to see other rain measurements)
** Current wind speed in m/s (hover to see current wind gust speed)